LGZA/ZTH METAR and TAF weather

Enter ICAO airport designator
Station Type Date Time Source
LGZA METAR 2021/09/28 04:50 UTC NOAA

LGZA 280450Z 00000KT 9999 FEW020 SCT070 18/16 Q1014


Station Type Date Time Source
LGZA Decoded METAR 2021/09/28 04:50 UTC NOAA

Zakinthos Airport , Greece (LGZA) 37-45N 020-53E
Sep 28, 2021 - 12:50 AM EDT / 2021.09.28 0450 UTC
Wind: Calm:0
Visibility: greater than 7 mile(s):0
Sky conditions: partly cloudy
Temperature: 64 F (18 C)
Dew Point: 60 F (16 C)
Relative Humidity: 88%
Pressure (altimeter): 29.94 in. Hg (1014 hPa)
ob: LGZA 280450Z 00000KT 9999 FEW020 SCT070 18/16 Q1014
cycle: 5

Station Type Date Time Source
LGZA TAF 2011/11/25 15:06 UTC NOAA

TAF TAF LGZA 251400Z 2515/2603 02012KT 9999 FEW025 SCT035 BKN080 PROB30
TEMPO 2518/2603 8000 RA PROB30 2522/2603 5000 BR SCT010

Example: see airport list